createdAt,value
2016-04-13T08:51:43.632Z,84.06
2016-04-13T08:52:43.587Z,85.36
2016-04-13T08:53:43.558Z,86.52
2016-04-13T08:54:43.546Z,86.04
2016-04-13T08:55:43.564Z,87.91
2016-04-13T08:56:43.521Z,88.25
2016-04-13T08:57:43.507Z,85.77
2016-04-13T08:58:43.510Z,89.3
2016-04-13T08:59:43.496Z,87.96
2016-04-13T09:00:43.484Z,88.15
2016-04-13T09:01:43.455Z,86.96
2016-04-13T09:02:43.442Z,87.39
2016-04-13T09:03:43.429Z,85.96
2016-04-13T09:04:43.416Z,87.39
2016-04-13T09:05:43.387Z,86.91
2016-04-13T09:06:43.390Z,87.87
2016-04-13T09:07:43.409Z,87.68
2016-04-13T09:08:43.364Z,87.2
2016-04-13T09:09:43.336Z,88.25
2016-04-13T09:10:43.323Z,89.2
2016-04-13T09:11:43.310Z,89.59
2016-04-13T09:12:43.297Z,90.83
2016-04-13T09:13:43.284Z,91.02
2016-04-13T09:14:43.272Z,91.4
2016-04-13T09:15:43.242Z,89.97
2016-04-13T09:16:43.245Z,92.36
2016-04-13T09:17:43.232Z,89.59
2016-04-13T09:18:43.235Z,89.87
2016-04-13T09:19:43.191Z,91.3
2016-04-13T09:20:43.178Z,91.69
2016-04-13T09:21:43.166Z,91.5
2016-04-13T09:22:43.152Z,90.3
2016-04-13T09:23:43.139Z,90.2
2016-04-13T09:24:43.126Z,91.54
2016-04-13T09:25:43.098Z,90.78
2016-04-13T09:26:43.132Z,90.3
2016-04-13T09:27:43.088Z,90.59
2016-04-13T09:28:43.060Z,88.87
2016-04-13T09:29:43.062Z,89.53
2016-04-13T09:30:43.049Z,89.34
2016-04-13T09:31:43.020Z,88.39
2016-04-13T09:32:43.007Z,88.39
2016-04-13T09:33:42.994Z,89.73
2016-04-13T09:34:42.965Z,89.77
2016-04-13T09:35:42.968Z,88.62
2016-04-13T09:36:42.955Z,89.44
2016-04-13T09:37:42.927Z,88.34
2016-04-13T09:38:43.023Z,87.66
2016-04-13T09:39:42.901Z,87.09
2016-04-13T09:40:42.888Z,87.43
2016-04-13T09:41:42.875Z,87.14
2016-04-13T09:42:42.862Z,85.61
2016-04-13T09:43:42.849Z,85.89
2016-04-13T09:44:42.867Z,85.32
2016-04-13T09:45:42.839Z,85.8
2016-04-13T09:46:42.794Z,84.31
2016-04-13T09:47:42.797Z,83.73
2016-04-13T09:48:42.785Z,83.83
2016-04-13T09:49:42.756Z,82.87
2016-04-13T09:50:42.744Z,84.02
2016-04-13T09:51:42.730Z,83.45
2016-04-13T09:52:42.733Z,83.54
2016-04-13T09:53:42.704Z,84.12
2016-04-13T09:54:42.775Z,83.64
2016-04-13T09:55:42.782Z,84.98
2016-04-13T09:56:42.504Z,84.02
2016-04-13T09:57:42.647Z,84.41
2016-04-13T09:58:42.682Z,84.69
2016-04-13T09:59:42.621Z,84.02
2016-04-13T10:00:42.626Z,84.79
2016-04-13T10:01:42.602Z,84.22
2016-04-13T10:02:42.589Z,85.27
2016-04-13T10:03:42.592Z,85.75
2016-04-13T10:04:42.570Z,86.9
2016-04-13T10:05:42.432Z,87.56
2016-04-13T10:06:42.528Z,89.38
2016-04-13T10:07:42.547Z,90.44
2016-04-13T10:08:42.517Z,90.91
2016-04-13T10:09:42.489Z,90.96
2016-04-13T10:10:42.492Z,91.25
2016-04-13T10:11:42.479Z,92.3
2016-04-13T10:12:49.403Z,94.98
2016-04-13T10:13:55.828Z,95.65
2016-04-13T10:14:53.566Z,96.42
2016-04-13T10:15:51.224Z,95.79
2016-04-13T10:16:42.411Z,96.66
2016-04-13T10:17:42.415Z,97.71
2016-04-13T10:18:42.386Z,96.84
2016-04-13T10:19:42.373Z,97.8
2016-04-13T10:20:42.345Z,96.61
2016-04-13T10:21:42.332Z,96.66
2016-04-13T10:22:42.194Z,96.56
2016-04-13T10:23:42.322Z,96.56
2016-04-13T10:24:42.293Z,98.95
2016-04-13T10:25:42.264Z,97.28
2016-04-13T10:26:42.267Z,95.98
2016-04-13T10:27:42.238Z,96.13
2016-04-13T10:28:42.241Z,92.25
2016-04-13T10:29:42.213Z,92.3
2016-04-13T10:30:42.223Z,89.9
2016-04-13T10:31:42.194Z,89.57
2016-04-13T10:32:42.025Z,91.39
2016-04-13T10:33:42.231Z,92.06
2016-04-13T10:34:42.155Z,93.21
2016-04-13T10:35:42.142Z,95.7
2016-04-13T10:36:42.208Z,92.21
2016-04-13T10:37:41.991Z,91.25
2016-04-13T10:38:42.101Z,91.25
2016-04-13T10:39:42.089Z,91.92
2016-04-13T10:40:42.076Z,91.92
2016-04-13T10:41:42.062Z,91.92
2016-04-13T10:42:42.034Z,92.21
2016-04-13T10:43:42.037Z,92.21
2016-04-13T10:44:42.024Z,93.07
2016-04-13T10:45:42.026Z,91.29
2016-04-13T10:46:42.028Z,89.95
2016-04-13T10:47:41.985Z,90.96
2016-04-13T10:48:41.972Z,87.98
2016-04-13T10:49:41.959Z,84.86
2016-04-13T10:50:41.961Z,83.56
2016-04-13T10:51:41.949Z,78.94
2016-04-13T10:52:42.013Z,78.78
2016-04-13T10:53:41.907Z,77.98
2016-04-13T10:54:41.910Z,77.92
2016-04-13T10:55:44.413Z,80.47
2016-04-13T10:56:54.746Z,77.59
2016-04-13T10:57:51.686Z,77.44
2016-04-13T10:58:47.218Z,75.17
2016-04-13T10:59:56.535Z,72.67
2016-04-13T11:00:56.485Z,70.34
2016-04-13T11:01:56.533Z,68.74
2016-04-13T11:02:50.392Z,70.43
2016-04-13T11:03:58.643Z,71.08
2016-04-13T11:05:10.125Z,71.26
2016-04-13T11:06:33.416Z,70.4
2016-04-13T11:07:44.371Z,68.26
2016-04-13T11:09:30.393Z,64.47
2016-04-13T11:10:36.943Z,67.46
2016-04-13T11:11:56.047Z,70.56
2016-04-13T11:13:06.555Z,71.04
2016-04-13T11:14:08.203Z,72.38
2016-04-13T11:15:13.594Z,73.75
2016-04-13T11:16:21.740Z,69.4
2016-04-13T11:17:16.214Z,68.06
2016-04-13T11:18:34.749Z,66.62
2016-04-13T11:19:13.348Z,66.07
2016-04-13T11:20:11.957Z,65.59
2016-04-13T11:21:39.403Z,58.65
2016-04-13T11:22:30.484Z,61.54
2016-04-13T11:23:19.972Z,62.18
2016-04-13T11:24:19.789Z,63.21
2016-04-13T11:25:19.776Z,62.06
2016-04-13T11:26:19.779Z,61.99
2016-04-13T11:27:19.782Z,64.18
2016-04-13T11:28:19.769Z,63.44
2016-04-13T11:29:19.773Z,61.45
2016-04-13T11:30:19.761Z,62.12
2016-04-13T11:31:19.763Z,58.69
2016-04-13T11:32:19.749Z,57.75
2016-04-13T11:33:19.753Z,53.59
2016-04-13T11:34:19.755Z,55.33
2016-04-13T11:35:19.742Z,58
2016-04-13T11:36:19.730Z,63.34
2016-04-13T11:37:19.732Z,63.41
2016-04-13T11:38:19.735Z,60.3
2016-04-13T11:39:19.737Z,56.49
2016-04-13T11:40:19.724Z,56.56
2016-04-13T11:41:19.712Z,56.24
2016-04-13T11:42:19.714Z,57.49
2016-04-13T11:43:19.701Z,58.72
2016-04-13T11:44:19.704Z,62.83
2016-04-13T11:45:19.706Z,64.18
2016-04-13T11:46:19.694Z,62.09
2016-04-13T11:47:19.696Z,65.01
2016-04-13T11:48:19.684Z,64.92
2016-04-13T11:49:19.687Z,65.69
2016-04-13T11:50:19.689Z,63.09
2016-04-13T11:51:19.675Z,61.9
2016-04-13T11:52:19.662Z,57.92
2016-04-13T11:53:19.665Z,55.33
2016-04-13T11:54:19.653Z,58.36
2016-04-13T11:55:19.656Z,56.85
2016-04-13T11:56:19.642Z,55.36
2016-04-13T11:57:19.645Z,57.32
2016-04-13T11:58:19.647Z,56.56
2016-04-13T11:59:19.635Z,55.62
2016-04-13T12:00:19.638Z,53.78
2016-04-13T12:01:19.625Z,51.83
2016-04-13T12:02:19.627Z,52.8
2016-04-13T12:03:19.630Z,54.27
2016-04-13T12:04:19.633Z,53.95
2016-04-13T12:05:19.636Z,50.71
2016-04-13T12:06:19.607Z,51.54
2016-04-13T12:07:19.610Z,50.84
2016-04-13T12:08:19.613Z,47.69
2016-04-13T12:09:19.616Z,46.12
2016-04-13T12:10:19.603Z,46.51
2016-04-13T12:11:19.606Z,46.97
2016-04-13T12:12:19.608Z,47.94
2016-04-13T12:13:19.611Z,50.45
2016-04-13T12:14:19.598Z,52.55
2016-04-13T12:15:19.601Z,50.71
2016-04-13T12:16:19.603Z,51.29
2016-04-13T12:17:19.606Z,49.12
2016-04-13T12:18:19.608Z,43.43
2016-04-13T12:19:19.596Z,45.17
2016-04-13T12:20:19.599Z,44.61
2016-04-13T12:21:19.601Z,47.74
2016-04-13T12:22:19.604Z,49.07
2016-04-13T12:23:19.591Z,49.41
2016-04-13T12:24:19.593Z,48.93
2016-04-13T12:25:19.612Z,47.86
2016-04-13T12:26:19.599Z,49.24
2016-04-13T12:27:19.587Z,55.35
2016-04-13T12:28:19.589Z,56.63
2016-04-13T12:29:19.592Z,54.47
2016-04-13T12:30:19.595Z,50.86
2016-04-13T12:31:19.597Z,51.61
2016-04-13T12:32:19.585Z,55.35
2016-04-13T12:33:19.587Z,57.46
2016-04-13T12:34:19.574Z,58.52
2016-04-13T12:35:19.576Z,56.98
2016-04-13T12:36:19.578Z,54.69
2016-04-13T12:37:19.582Z,51.95
2016-04-13T12:38:19.584Z,51.03
2016-04-13T12:39:19.572Z,50.76
2016-04-13T12:40:19.590Z,53.69
2016-04-13T12:41:19.578Z,57.39
2016-04-13T12:42:19.580Z,60.35
2016-04-13T12:43:19.583Z,58.17
2016-04-13T12:44:19.569Z,53.56
2016-04-13T12:45:19.572Z,54.17
2016-04-13T12:46:19.575Z,56.36
2016-04-13T12:47:19.559Z,59.58
2016-04-13T12:48:19.561Z,58.47
2016-04-13T12:49:19.549Z,51.82
2016-04-13T12:50:19.583Z,48.08
2016-04-13T12:51:19.539Z,48.39
2016-04-13T12:52:19.542Z,45.9
2016-04-13T12:53:19.544Z,45.03
2016-04-13T12:54:19.546Z,46.17
2016-04-13T12:55:19.534Z,47.45
2016-04-13T12:56:19.537Z,49.41
2016-04-13T12:57:19.540Z,50.33
2016-04-13T12:58:19.558Z,50.98
2016-04-13T12:59:19.529Z,49.17
2016-04-13T13:00:19.532Z,47.86
2016-04-13T13:01:19.534Z,47.31
2016-04-13T13:02:19.521Z,49.32
2016-04-13T13:03:19.524Z,50.45
2016-04-13T13:04:19.527Z,50.86
2016-04-13T13:05:19.530Z,53.17
2016-04-13T13:06:19.517Z,50.67
2016-04-13T13:07:19.519Z,50.45
2016-04-13T13:08:19.522Z,48.52
2016-04-13T13:09:19.509Z,50.74
2016-04-13T13:10:19.528Z,53.75
2016-04-13T13:11:19.530Z,50.96
2016-04-13T13:12:19.517Z,50.52
2016-04-13T13:13:19.519Z,48.11
2016-04-13T13:14:19.523Z,47.24
2016-04-13T13:15:19.509Z,49.56
2016-04-13T13:16:19.512Z,50.38
2016-04-13T13:17:19.515Z,46.88
2016-04-13T13:18:19.502Z,43.77
2016-04-13T13:19:19.505Z,41.2
2016-04-13T13:20:19.508Z,38.87
2016-04-13T13:21:19.510Z,40.42
2016-04-13T13:22:19.497Z,44.65
2016-04-13T13:23:19.500Z,49.54
2016-04-13T13:24:19.502Z,49.1
2016-04-13T13:25:19.708Z,49.07
2016-04-13T13:26:19.523Z,48.16
2016-04-13T13:27:19.495Z,49.51
2016-04-13T13:28:19.498Z,52.17
2016-04-13T13:29:19.485Z,52.89
2016-04-13T13:30:19.503Z,52.98
2016-04-13T13:31:19.506Z,53.44
2016-04-13T13:32:19.524Z,54.5
2016-04-13T13:33:19.996Z,52.28
2016-04-13T13:34:19.498Z,49.07
2016-04-13T13:35:19.485Z,47.02
2016-04-13T13:36:19.488Z,44.54
2016-04-13T13:37:19.491Z,46.24
2016-04-13T13:38:19.493Z,49.49
2016-04-13T13:39:19.496Z,50.4
2016-04-13T13:40:19.483Z,50.35
2016-04-13T13:41:19.470Z,48.95
2016-04-13T13:42:19.473Z,47.63
2016-04-13T13:43:19.491Z,47.48
2016-04-13T13:44:19.478Z,48.35
2016-04-13T13:45:19.464Z,47.67
2016-04-13T13:46:19.468Z,49.39
2016-04-13T13:47:19.455Z,50.23
2016-04-13T13:48:19.472Z,49.1
2016-04-13T13:49:19.460Z,46.68
2016-04-13T13:50:19.463Z,46.8
2016-04-13T13:51:19.450Z,47.72
2016-04-13T13:52:19.452Z,48.95
2016-04-13T13:53:19.455Z,50.23
2016-04-13T13:54:19.443Z,52.75
2016-04-13T13:55:19.446Z,52.31
2016-04-13T13:56:19.448Z,53.97
2016-04-13T13:57:19.435Z,55.36
2016-04-13T13:58:19.438Z,53.15
2016-04-13T13:59:20.019Z,51.78
2016-04-13T14:00:19.427Z,53.95
2016-04-13T14:01:19.430Z,54.4
2016-04-13T14:02:20.746Z,58.72
2016-04-13T14:03:19.420Z,56.99
2016-04-13T14:04:19.438Z,53.7
2016-04-13T14:05:19.425Z,50.98
2016-04-13T14:06:19.428Z,52.48
2016-04-13T14:07:19.415Z,53.53
2016-04-13T14:08:19.418Z,50.21
2016-04-13T14:09:19.404Z,46.63
2016-04-13T14:10:19.407Z,43.27
2016-04-13T14:11:19.409Z,46.48
2016-04-13T14:12:19.397Z,49.1
2016-04-13T14:13:19.401Z,47.94
2016-04-13T14:14:19.387Z,43.63
2016-04-13T14:15:19.389Z,42.33
2016-04-13T14:16:19.408Z,42.21
2016-04-13T14:17:19.394Z,45.24
2016-04-13T14:18:19.398Z,49.49
2016-04-13T14:19:19.385Z,50.47
2016-04-13T14:20:19.388Z,49.63
2016-04-13T14:21:19.375Z,48.39
2016-04-13T14:22:19.378Z,51.01
2016-04-13T14:23:19.427Z,53.11
2016-04-13T14:24:19.383Z,53.17
2016-04-13T14:25:19.385Z,51.34
2016-04-13T14:26:19.372Z,52.91
2016-04-13T14:27:19.360Z,54.05
2016-04-13T14:28:19.410Z,54.5
2016-04-13T14:29:19.365Z,54.98
2016-04-13T14:30:19.352Z,57.49
2016-04-13T14:31:19.354Z,59.55
2016-04-13T14:32:19.388Z,60.3
2016-04-13T14:33:19.344Z,61.52
2016-04-13T14:34:19.346Z,63.99
2016-04-13T14:35:19.381Z,61.58
2016-04-13T14:36:19.337Z,59.49
2016-04-13T14:37:19.323Z,58.88
2016-04-13T14:38:19.357Z,58.37
2016-04-13T14:39:19.329Z,57.62
2016-04-13T14:40:19.317Z,57.24
2016-04-13T14:41:19.319Z,56.57
2016-04-13T14:42:19.291Z,59.17
2016-04-13T14:43:19.590Z,61.13
2016-04-13T14:44:19.296Z,61.61
2016-04-13T14:45:19.283Z,63.99
2016-04-13T14:46:19.286Z,63.48
2016-04-13T14:47:19.335Z,61.55
2016-04-13T14:48:19.275Z,58.85
2016-04-13T14:49:19.262Z,56.37
2016-04-13T14:50:19.312Z,58.26
2016-04-13T14:51:19.267Z,60.07
2016-04-13T14:52:19.255Z,61.13
2016-04-13T14:53:19.319Z,64.18
2016-04-13T14:54:19.234Z,62.32
2016-04-13T14:55:19.236Z,56.35
2016-04-13T14:56:19.239Z,53.83
2016-04-13T14:57:19.210Z,53.37
2016-04-13T14:58:19.229Z,56.72
2016-04-13T14:59:19.201Z,58.44
2016-04-13T15:00:19.219Z,59.11
2016-04-13T15:01:19.190Z,61.65
2016-04-13T15:02:19.177Z,61.61
2016-04-13T15:03:19.180Z,60.84
2016-04-13T15:04:19.167Z,61.77
2016-04-13T15:05:19.171Z,60.27
2016-04-13T15:06:19.157Z,57.34
2016-04-13T15:07:19.160Z,57.29
2016-04-13T15:08:19.178Z,55.24
2016-04-13T15:09:19.149Z,55.66
2016-04-13T15:10:19.137Z,57.85
2016-04-13T15:11:19.124Z,59.91
2016-04-13T15:12:19.126Z,58.31
2016-04-13T15:13:19.129Z,54.64
2016-04-13T15:14:19.132Z,52.31
2016-04-13T15:15:19.103Z,52.11
2016-04-13T15:16:19.106Z,54.43
2016-04-13T15:17:19.093Z,56.33
2016-04-13T15:18:19.099Z,56.21
2016-04-13T15:19:19.118Z,57.72
2016-04-13T15:20:19.090Z,57.62
2016-04-13T15:21:19.076Z,58.11
2016-04-13T15:22:19.063Z,58.4
2016-04-13T15:23:19.207Z,58.56
2016-04-13T15:24:19.054Z,57.14
2016-04-13T15:25:19.056Z,52.67
2016-04-13T15:26:19.043Z,51.65
2016-04-13T15:27:19.046Z,52.14
2016-04-13T15:28:19.032Z,52.04
2016-04-13T15:29:19.035Z,55.68
2016-04-13T15:30:19.037Z,58.4
2016-04-13T15:31:19.025Z,59.11
2016-04-13T15:32:19.028Z,60.14
2016-04-13T15:33:19.046Z,59.75
2016-04-13T15:34:19.002Z,58.79
2016-04-13T15:35:19.020Z,59.97
2016-04-13T15:36:19.069Z,62.8
2016-04-13T15:37:18.994Z,64.02
2016-04-13T15:38:18.888Z,63.15
2016-04-13T15:39:19.344Z,61.52
2016-04-13T15:40:18.986Z,61.55
2016-04-13T15:41:19.005Z,60.78
2016-04-13T15:42:18.804Z,61.36
2016-04-13T15:43:18.963Z,61.74
2016-04-13T15:44:18.950Z,61.46
2016-04-13T15:45:18.938Z,62.32
2016-04-13T15:46:18.924Z,63.92
2016-04-13T15:47:18.927Z,63.92
2016-04-13T15:48:18.915Z,64.02
2016-04-13T15:49:18.902Z,63.15
2016-04-13T15:50:18.904Z,64.89
2016-04-13T15:51:18.907Z,64.85
2016-04-13T15:52:18.894Z,64.12
2016-04-13T15:53:18.912Z,63.54
2016-04-13T15:54:18.868Z,64.12
2016-04-13T15:55:18.855Z,63.35
2016-04-13T15:56:18.843Z,64.22
2016-04-13T15:57:18.845Z,63.45
2016-04-13T15:58:18.817Z,64.76
2016-04-13T15:59:18.820Z,64.76
2016-04-13T16:00:18.807Z,65.33
2016-04-13T16:01:18.809Z,66.55
2016-04-13T16:02:18.796Z,66.26
2016-04-13T16:03:18.767Z,66
2016-04-13T16:04:18.786Z,65.78
2016-04-13T16:05:19.194Z,65.05
2016-04-13T16:06:19.228Z,65.53
2016-04-13T16:07:19.466Z,65.81
2016-04-13T16:08:18.734Z,65.91
2016-04-13T16:09:18.721Z,65.14
2016-04-13T16:10:18.708Z,65.69
2016-04-13T16:11:18.694Z,65.97
2016-04-13T16:12:18.682Z,64.92
2016-04-13T16:13:18.685Z,66.07
2016-04-13T16:14:18.672Z,65.97
2016-04-13T16:15:18.658Z,65.49
2016-04-13T16:16:18.646Z,65.78
2016-04-13T16:17:18.633Z,65.01
2016-04-13T16:18:18.620Z,65.69
2016-04-13T16:19:18.607Z,65.97
2016-04-13T16:20:18.610Z,65.88
2016-04-13T16:21:18.596Z,65.97
2016-04-13T16:22:18.584Z,65.2
2016-04-13T16:23:18.571Z,65.27
2016-04-13T16:24:18.573Z,65.65
2016-04-13T16:25:18.545Z,65.97
2016-04-13T16:26:18.548Z,65.49
2016-04-13T16:27:18.534Z,65.78
2016-04-13T16:28:18.522Z,65.59
2016-04-13T16:29:18.509Z,66.16
2016-04-13T16:30:18.496Z,67.13
2016-04-13T16:31:18.483Z,67.76
2016-04-13T16:32:18.470Z,66.52
2016-04-13T16:33:18.457Z,65.59
2016-04-13T16:34:18.459Z,65.49
2016-04-13T16:35:18.447Z,65.94
2016-04-13T16:36:18.434Z,66.71
2016-04-13T16:37:18.436Z,66.8
2016-04-13T16:38:18.408Z,66.9
2016-04-13T16:39:18.395Z,66.71
2016-04-13T16:40:18.383Z,66.9
2016-04-13T16:41:18.386Z,67
2016-04-13T16:42:18.356Z,67.09
2016-04-13T16:43:18.344Z,67.47
2016-04-13T16:44:18.361Z,68.24
2016-04-13T16:45:18.334Z,68.15
2016-04-13T16:46:18.321Z,68.44
2016-04-13T16:47:18.308Z,68.05
2016-04-13T16:48:18.294Z,67.38
2016-04-13T16:49:18.282Z,68.21
2016-04-13T16:50:18.284Z,68.63
2016-04-13T16:51:18.255Z,69.56
2016-04-13T16:52:18.258Z,69.93
2016-04-13T16:53:18.308Z,69.74
2016-04-13T16:54:18.232Z,70.17
2016-04-13T16:55:18.220Z,69.65
2016-04-13T16:56:18.207Z,68.24
2016-04-13T16:57:18.209Z,67.61
2016-04-13T16:58:18.165Z,68.47
2016-04-13T16:59:18.184Z,68.91
2016-04-13T17:00:18.155Z,68.18
2016-04-13T17:01:18.158Z,68.66
2016-04-13T17:02:18.129Z,68.18
2016-04-13T17:03:18.117Z,67.7
2016-04-13T17:04:18.135Z,68.73
2016-04-13T17:05:18.090Z,69.11
2016-04-13T17:06:18.078Z,69.87
2016-04-13T17:07:18.065Z,69.87
2016-04-13T17:08:18.051Z,69.3
2016-04-13T17:09:18.054Z,68.91
2016-04-13T17:10:18.042Z,68.73
2016-04-13T17:11:18.028Z,69.26
2016-04-13T17:12:18.016Z,69.84
2016-04-13T17:13:18.003Z,69.11
2016-04-13T17:14:17.989Z,69.49
2016-04-13T17:15:17.977Z,69.65
2016-04-13T17:16:17.994Z,69.65
2016-04-13T17:17:17.950Z,70.13
2016-04-13T17:18:17.938Z,69.84
2016-04-13T17:19:17.940Z,69.74
2016-04-13T17:20:17.927Z,69.84
2016-04-13T17:21:17.915Z,69.56
2016-04-13T17:22:17.901Z,69.74
2016-04-13T17:23:17.904Z,69.56
2016-04-13T17:24:17.876Z,69.17
2016-04-13T17:25:17.863Z,69.93
2016-04-13T17:26:17.850Z,70.13
2016-04-13T17:27:17.837Z,69.97
2016-04-13T17:28:17.824Z,70.36
2016-04-13T17:29:17.812Z,70.07
2016-04-13T17:30:17.829Z,70.45
2016-04-13T17:31:17.785Z,70.55
2016-04-13T17:32:17.787Z,71.98
2016-04-13T17:33:17.775Z,71.86
2016-04-13T17:34:17.762Z,71.98
2016-04-13T17:35:17.749Z,71.89
2016-04-13T17:36:17.736Z,71.98
2016-04-13T17:37:17.723Z,72.91
2016-04-13T17:38:17.710Z,72.05
2016-04-13T17:39:17.697Z,71.76
2016-04-13T17:40:17.684Z,72.72
2016-04-13T17:41:17.686Z,73.49
2016-04-13T17:42:17.658Z,73.97
2016-04-13T17:43:17.645Z,74.83
2016-04-13T17:44:17.632Z,74.44
2016-04-13T17:45:17.667Z,74.83
2016-04-13T17:46:17.466Z,75.21
2016-04-13T17:47:17.656Z,74.83
2016-04-13T17:48:17.597Z,75.37
2016-04-13T17:49:17.583Z,75.12
2016-04-13T17:50:17.571Z,75.7
2016-04-13T17:51:17.558Z,75.85
2016-04-13T17:52:17.544Z,75.75
2016-04-13T17:53:17.516Z,75.6
2016-04-13T17:54:17.519Z,75.6
2016-04-13T17:55:17.506Z,75.65
2016-04-13T17:56:17.493Z,75.65
2016-04-13T17:57:17.480Z,76.32
2016-04-13T17:58:17.468Z,76.52
2016-04-13T17:59:17.455Z,76.42
2016-04-13T18:00:17.441Z,77.19
2016-04-13T18:01:17.429Z,77.19
2016-04-13T18:02:17.415Z,77.58
2016-04-13T18:03:17.403Z,77.53
2016-04-13T18:04:17.390Z,78.15
2016-04-13T18:05:17.408Z,78.11
2016-04-13T18:06:17.379Z,78.11
2016-04-13T18:07:17.351Z,78.05
2016-04-13T18:08:17.353Z,78.15
2016-04-13T18:09:17.340Z,78.34
2016-04-13T18:10:17.311Z,78.15
2016-04-13T18:11:17.299Z,78.53
2016-04-13T18:12:17.302Z,78.44
2016-04-13T18:13:17.288Z,79.3
2016-04-13T18:14:17.275Z,79.39
2016-04-13T18:15:17.263Z,79.83
2016-04-13T18:16:17.234Z,79.74
2016-04-13T18:17:17.252Z,79.83
2016-04-13T18:18:17.224Z,80.26
2016-04-13T18:19:17.211Z,79.74
2016-04-13T18:20:17.183Z,80.32
2016-04-13T18:21:17.185Z,80.32
2016-04-13T18:22:17.157Z,80.51
2016-04-13T18:23:17.160Z,80.51
2016-04-13T18:24:17.146Z,81.27
2016-04-13T18:25:17.133Z,81.37
2016-04-13T18:26:17.105Z,81.46
2016-04-13T18:27:17.107Z,81.18
2016-04-13T18:28:17.095Z,81.95
2016-04-13T18:29:17.081Z,82.32
2016-04-13T18:30:17.068Z,82.14
2016-04-13T18:31:17.040Z,82.14
2016-04-13T18:32:17.027Z,82.14
2016-04-13T18:33:17.030Z,82.42
2016-04-13T18:34:17.017Z,82.23
2016-04-13T18:35:17.004Z,82.32
2016-04-13T18:36:16.991Z,83
2016-04-13T18:37:16.962Z,82.86
2016-04-13T18:38:16.965Z,82.9
2016-04-13T18:39:16.967Z,82.86
2016-04-13T18:40:16.940Z,83.05
2016-04-13T18:41:16.911Z,83.53
2016-04-13T18:42:16.914Z,83.05
2016-04-13T18:43:16.901Z,83.25
2016-04-13T18:44:16.904Z,83.25
2016-04-13T18:45:16.875Z,83.05
2016-04-13T18:46:16.862Z,82.48
2016-04-13T18:47:16.849Z,82.48
2016-04-13T18:48:16.836Z,82.38
2016-04-13T18:49:16.822Z,82.57
2016-04-13T18:50:16.794Z,82.67
2016-04-13T18:51:16.797Z,82.76
2016-04-13T18:52:16.784Z,82.29
2016-04-13T18:53:16.788Z,82.67
2016-04-13T18:54:16.743Z,82.38
2016-04-13T18:55:16.730Z,82.57
2016-04-13T18:56:16.732Z,82.57
2016-04-13T18:57:16.719Z,82.57
2016-04-13T18:58:16.707Z,82.38
2016-04-13T18:59:16.678Z,82.48
2016-04-13T19:00:16.681Z,82.76
2016-04-13T19:01:16.652Z,82.19
2016-04-13T19:02:16.654Z,82.29
2016-04-13T19:03:16.626Z,82.09
2016-04-13T19:04:16.612Z,82.48
2016-04-13T19:05:16.600Z,82.86
2016-04-13T19:06:16.587Z,83.44
2016-04-13T19:07:16.575Z,82.57
2016-04-13T19:08:16.562Z,82.48
2016-04-13T19:09:16.548Z,83.15
2016-04-13T19:10:16.536Z,82.96
2016-04-13T19:11:16.522Z,82.29
2016-04-13T19:12:16.509Z,82.19
2016-04-13T19:13:16.497Z,82.86
2016-04-13T19:14:16.625Z,83.05
2016-04-13T19:15:16.472Z,82.86
2016-04-13T19:16:16.459Z,82.86
2016-04-13T19:17:16.445Z,82.96
2016-04-13T19:18:16.433Z,83.53
2016-04-13T19:19:16.420Z,83.39
2016-04-13T19:20:16.406Z,83.63
2016-04-13T19:21:16.394Z,82.96
2016-04-13T19:22:16.380Z,83.53
2016-04-13T19:23:16.368Z,83.72
2016-04-13T19:24:16.354Z,83.44
2016-04-13T19:25:16.341Z,83.49
2016-04-13T19:26:16.313Z,83.05
2016-04-13T19:27:16.299Z,82.86
2016-04-13T19:28:16.287Z,82.96
2016-04-13T19:29:16.274Z,82.86
2016-04-13T19:30:16.277Z,83.05
2016-04-13T19:31:16.249Z,83.72
2016-04-13T19:32:16.235Z,83.59
2016-04-13T19:33:16.223Z,83.05
2016-04-13T19:34:16.209Z,83.34
2016-04-13T19:35:16.196Z,83.44
2016-04-13T19:36:16.184Z,83.34
2016-04-13T19:37:16.171Z,83.97
2016-04-13T19:38:16.173Z,83.78
2016-04-13T19:39:16.270Z,83.49
2016-04-13T19:40:16.132Z,84.06
2016-04-13T19:41:16.120Z,83.68
2016-04-13T19:42:16.107Z,83.68
2016-04-13T19:43:16.092Z,84.64
2016-04-13T19:44:16.081Z,84.26
2016-04-13T19:45:16.083Z,84.26
2016-04-13T19:46:16.289Z,84.45
2016-04-13T19:47:16.072Z,84.45
2016-04-13T19:48:17.310Z,83.87
2016-04-13T19:49:16.016Z,83.87
2016-04-13T19:50:16.002Z,83.97
2016-04-13T19:51:17.437Z,84.26
2016-04-13T19:52:15.986Z,84.45
2016-04-13T19:53:15.957Z,84.26
2016-04-13T19:54:15.852Z,84.35
2016-04-13T19:55:15.949Z,84.26
2016-04-13T19:56:16.014Z,84.35
2016-04-13T19:57:15.908Z,84.16
2016-04-13T19:58:15.739Z,84.26
2016-04-13T19:59:15.882Z,83.78
2016-04-13T20:00:15.869Z,83.87
2016-04-13T20:01:16.169Z,83.87
2016-04-13T20:02:15.843Z,84.16
2016-04-13T20:03:15.830Z,83.78
2016-04-13T20:04:15.816Z,84.16
2016-04-13T20:05:15.788Z,84.35
2016-04-13T20:06:15.776Z,84.45
2016-04-13T20:07:15.772Z,83.49
2016-04-13T20:08:15.850Z,83.01
2016-04-13T20:09:15.870Z,83.59
2016-04-13T20:10:15.879Z,83.87
2016-04-13T20:11:15.894Z,84.35
2016-04-13T20:12:15.920Z,84.16
2016-04-13T20:13:15.921Z,84.45
2016-04-13T20:14:15.925Z,84.26
2016-04-13T20:15:15.944Z,84.45
2016-04-13T20:16:15.930Z,84.06
2016-04-13T20:17:15.931Z,84.92
2016-04-13T20:18:15.923Z,85.12
2016-04-13T20:19:15.915Z,85.02
2016-04-13T20:20:15.909Z,84.35
2016-04-13T20:21:15.901Z,84.45
2016-04-13T20:22:15.908Z,84.74
2016-04-13T20:23:15.882Z,85.02
2016-04-13T20:24:15.870Z,84.45
2016-04-13T20:25:15.859Z,84.35
2016-04-13T20:26:15.848Z,84.16
2016-04-13T20:27:15.836Z,84.74
2016-04-13T20:28:15.809Z,84.92
2016-04-13T20:29:15.797Z,85.02
2016-04-13T20:30:15.785Z,84.16
2016-04-13T20:31:15.772Z,84.26
2016-04-13T20:32:15.760Z,84.92
2016-04-13T20:33:15.747Z,85.12
2016-04-13T20:34:15.750Z,85.5
2016-04-13T20:35:15.738Z,85.98
2016-04-13T20:36:15.757Z,86.27
2016-04-13T20:37:15.698Z,86.27
2016-04-13T20:38:15.747Z,85.98
2016-04-13T20:39:15.718Z,85.98
2016-04-13T20:40:15.659Z,86.27
2016-04-13T20:41:15.490Z,86.17
2016-04-13T20:42:15.632Z,85.79
2016-04-13T20:43:15.620Z,85.98
2016-04-13T20:44:15.607Z,86.46
2016-04-13T20:45:15.594Z,86.17
2016-04-13T20:46:15.581Z,86.46
2016-04-13T20:47:15.553Z,87.32
2016-04-13T20:48:15.539Z,87.32
2016-04-13T20:49:15.526Z,87.13
2016-04-13T20:50:15.514Z,87.8
2016-04-13T20:51:15.500Z,87.51
2016-04-13T20:52:15.488Z,87.41
2016-04-13T20:53:15.475Z,88.09
2016-04-13T20:54:15.555Z,87.8
2016-04-13T20:55:15.449Z,87.99
2016-04-13T20:56:15.436Z,87.9
2016-04-13T20:57:15.422Z,87.13
2016-04-13T20:58:15.411Z,87.61
2016-04-13T20:59:15.397Z,87.99
2016-04-13T21:00:15.588Z,87.41
2016-04-13T21:01:15.372Z,87.23
2016-04-13T21:02:15.358Z,87.23
2016-04-13T21:03:15.330Z,87.41
2016-04-13T21:04:15.333Z,87.18
2016-04-13T21:05:15.320Z,86.46
2016-04-13T21:06:15.307Z,85.69
2016-04-13T21:07:15.279Z,86.36
2016-04-13T21:08:15.282Z,86.27
2016-04-13T21:09:15.440Z,86.08
2016-04-13T21:10:15.240Z,85.69
2016-04-13T21:11:15.227Z,85.84
2016-04-13T21:12:15.213Z,86.04
2016-04-13T21:13:15.216Z,86.04
2016-04-13T21:14:15.188Z,85.94
2016-04-13T21:15:15.175Z,86.04
2016-04-13T21:16:15.162Z,86.04
2016-04-13T21:17:15.165Z,85.88
2016-04-13T21:18:15.136Z,86.41
2016-04-13T21:19:15.123Z,86.13
2016-04-13T21:20:15.110Z,85.75
2016-04-13T21:21:15.098Z,85.75
2016-04-13T21:22:15.084Z,85.84
2016-04-13T21:23:15.056Z,86.22
2016-04-13T21:24:15.058Z,85.75
2016-04-13T21:25:15.045Z,85.75
2016-04-13T21:26:15.033Z,85.84
2016-04-13T21:27:15.019Z,86.13
2016-04-13T21:28:14.991Z,86.04
2016-04-13T21:29:14.994Z,85.94
2016-04-13T21:30:14.965Z,85.94
2016-04-13T21:31:14.952Z,85.84
2016-04-13T21:32:14.938Z,85.5
2016-04-13T21:33:14.927Z,85.31
2016-04-13T21:34:14.913Z,85.88
2016-04-13T21:35:14.900Z,86.04
2016-04-13T21:36:14.887Z,85.5
2016-04-13T21:37:14.875Z,86.22
2016-04-13T21:38:14.862Z,85.84
2016-04-13T21:39:14.865Z,85.84
2016-04-13T21:40:14.835Z,86.8
2016-04-13T21:41:14.823Z,86.22
2016-04-13T21:42:14.810Z,86.13
2016-04-13T21:43:14.781Z,85.75
2016-04-13T21:44:14.784Z,86.7
2016-04-13T21:45:14.787Z,86.8
2016-04-13T21:46:14.743Z,86.32
2016-04-13T21:47:14.729Z,86.41
2016-04-13T21:48:14.717Z,86.9